sensor_id;sensor_type;location;lat;lon;timestamp;P1;durP1;ratioP1;P2;durP2;ratioP2
52738;SDS011;52466;40.122;18.318;2022-09-02T00:01:46;115.40;;;59.75;;
52738;SDS011;52466;40.122;18.318;2022-09-02T00:04:54;113.93;;;59.33;;
52738;SDS011;52466;40.122;18.318;2022-09-02T00:08:03;115.65;;;58.75;;
52738;SDS011;52466;40.122;18.318;2022-09-02T00:11:13;116.10;;;59.20;;
52738;SDS011;52466;40.122;18.318;2022-09-02T00:17:35;115.15;;;59.20;;
52738;SDS011;52466;40.122;18.318;2022-09-02T00:20:44;113.97;;;59.38;;
52738;SDS011;52466;40.122;18.318;2022-09-02T00:23:53;115.05;;;59.22;;
52738;SDS011;52466;40.122;18.318;2022-09-02T00:27:02;115.40;;;58.70;;
52738;SDS011;52466;40.122;18.318;2022-09-02T00:30:10;114.65;;;58.70;;
52738;SDS011;52466;40.122;18.318;2022-09-02T00:33:18;113.20;;;58.75;;
52738;SDS011;52466;40.122;18.318;2022-09-02T00:36:26;113.15;;;58.78;;
52738;SDS011;52466;40.122;18.318;2022-09-02T00:39:34;112.68;;;59.25;;
52738;SDS011;52466;40.122;18.318;2022-09-02T00:42:42;116.82;;;59.50;;
52738;SDS011;52466;40.122;18.318;2022-09-02T00:45:49;115.43;;;59.00;;
52738;SDS011;52466;40.122;18.318;2022-09-02T00:49:00;112.43;;;58.50;;
52738;SDS011;52466;40.122;18.318;2022-09-02T00:52:16;112.13;;;59.28;;
52738;SDS011;52466;40.122;18.318;2022-09-02T00:55:47;117.95;;;59.58;;
52738;SDS011;52466;40.122;18.318;2022-09-02T00:58:57;117.60;;;59.30;;
52738;SDS011;52466;40.122;18.318;2022-09-02T01:02:06;115.25;;;59.60;;
52738;SDS011;52466;40.122;18.318;2022-09-02T01:05:16;111.22;;;59.00;;
52738;SDS011;52466;40.122;18.318;2022-09-02T01:08:28;117.45;;;59.53;;
52738;SDS011;52466;40.122;18.318;2022-09-02T01:11:44;114.25;;;59.80;;
52738;SDS011;52466;40.122;18.318;2022-09-02T01:14:54;116.25;;;59.40;;
52738;SDS011;52466;40.122;18.318;2022-09-02T01:18:04;114.53;;;59.65;;
52738;SDS011;52466;40.122;18.318;2022-09-02T01:21:14;112.95;;;60.00;;
52738;SDS011;52466;40.122;18.318;2022-09-02T01:24:30;115.20;;;59.88;;
52738;SDS011;52466;40.122;18.318;2022-09-02T01:27:39;111.97;;;60.15;;
52738;SDS011;52466;40.122;18.318;2022-09-02T01:30:51;115.95;;;61.33;;
52738;SDS011;52466;40.122;18.318;2022-09-02T01:34:00;114.13;;;60.20;;
52738;SDS011;52466;40.122;18.318;2022-09-02T01:37:08;112.68;;;60.50;;
52738;SDS011;52466;40.122;18.318;2022-09-02T01:40:17;114.78;;;60.13;;
52738;SDS011;52466;40.122;18.318;2022-09-02T01:43:26;114.03;;;59.78;;
52738;SDS011;52466;40.122;18.318;2022-09-02T01:46:35;112.55;;;59.85;;
52738;SDS011;52466;40.122;18.318;2022-09-02T01:49:43;112.18;;;59.35;;
52738;SDS011;52466;40.122;18.318;2022-09-02T01:52:53;112.72;;;59.72;;
52738;SDS011;52466;40.122;18.318;2022-09-02T01:56:01;113.72;;;59.88;;
52738;SDS011;52466;40.122;18.318;2022-09-02T01:59:09;115.95;;;59.83;;
52738;SDS011;52466;40.122;18.318;2022-09-02T02:02:23;114.32;;;59.65;;
52738;SDS011;52466;40.122;18.318;2022-09-02T02:05:33;111.40;;;59.65;;
52738;SDS011;52466;40.122;18.318;2022-09-02T02:08:41;112.53;;;59.65;;
52738;SDS011;52466;40.122;18.318;2022-09-02T02:11:49;115.05;;;59.95;;
52738;SDS011;52466;40.122;18.318;2022-09-02T02:15:00;112.25;;;60.00;;
52738;SDS011;52466;40.122;18.318;2022-09-02T02:18:12;115.68;;;59.88;;
52738;SDS011;52466;40.122;18.318;2022-09-02T02:21:19;114.30;;;60.60;;
52738;SDS011;52466;40.122;18.318;2022-09-02T02:24:27;114.45;;;59.60;;
52738;SDS011;52466;40.122;18.318;2022-09-02T02:27:35;115.53;;;60.25;;
52738;SDS011;52466;40.122;18.318;2022-09-02T02:30:43;112.00;;;59.60;;
52738;SDS011;52466;40.122;18.318;2022-09-02T02:33:51;113.07;;;59.70;;
52738;SDS011;52466;40.122;18.318;2022-09-02T02:36:59;115.53;;;59.67;;
52738;SDS011;52466;40.122;18.318;2022-09-02T02:40:08;116.30;;;59.60;;
52738;SDS011;52466;40.122;18.318;2022-09-02T02:43:17;114.00;;;59.75;;
52738;SDS011;52466;40.122;18.318;2022-09-02T02:46:26;113.50;;;59.75;;
52738;SDS011;52466;40.122;18.318;2022-09-02T02:49:38;112.78;;;59.75;;
52738;SDS011;52466;40.122;18.318;2022-09-02T02:52:47;114.70;;;59.90;;
52738;SDS011;52466;40.122;18.318;2022-09-02T02:55:56;114.28;;;59.42;;
52738;SDS011;52466;40.122;18.318;2022-09-02T02:59:05;114.18;;;59.25;;
52738;SDS011;52466;40.122;18.318;2022-09-02T03:02:13;114.10;;;59.47;;
52738;SDS011;52466;40.122;18.318;2022-09-02T03:05:23;115.55;;;59.85;;
52738;SDS011;52466;40.122;18.318;2022-09-02T03:08:31;115.20;;;59.97;;
52738;SDS011;52466;40.122;18.318;2022-09-02T03:11:42;112.53;;;59.53;;
52738;SDS011;52466;40.122;18.318;2022-09-02T03:14:49;113.10;;;59.28;;
52738;SDS011;52466;40.122;18.318;2022-09-02T03:17:59;111.68;;;60.00;;
52738;SDS011;52466;40.122;18.318;2022-09-02T03:21:07;113.30;;;59.03;;
52738;SDS011;52466;40.122;18.318;2022-09-02T03:24:17;113.55;;;58.65;;
52738;SDS011;52466;40.122;18.318;2022-09-02T03:27:25;113.53;;;59.45;;
52738;SDS011;52466;40.122;18.318;2022-09-02T03:30:33;111.15;;;59.00;;
52738;SDS011;52466;40.122;18.318;2022-09-02T03:33:42;110.97;;;59.08;;
52738;SDS011;52466;40.122;18.318;2022-09-02T03:36:52;114.20;;;59.65;;
52738;SDS011;52466;40.122;18.318;2022-09-02T03:40:02;115.40;;;59.22;;
52738;SDS011;52466;40.122;18.318;2022-09-02T03:43:11;111.90;;;59.42;;
52738;SDS011;52466;40.122;18.318;2022-09-02T03:46:19;111.15;;;59.28;;
52738;SDS011;52466;40.122;18.318;2022-09-02T03:49:27;114.50;;;59.72;;
52738;SDS011;52466;40.122;18.318;2022-09-02T03:52:35;116.13;;;59.42;;
52738;SDS011;52466;40.122;18.318;2022-09-02T03:55:43;111.75;;;58.70;;
52738;SDS011;52466;40.122;18.318;2022-09-02T03:58:51;114.13;;;59.22;;
52738;SDS011;52466;40.122;18.318;2022-09-02T04:02:01;112.10;;;58.97;;
52738;SDS011;52466;40.122;18.318;2022-09-02T04:05:10;114.55;;;58.78;;
52738;SDS011;52466;40.122;18.318;2022-09-02T04:08:19;112.72;;;59.30;;
52738;SDS011;52466;40.122;18.318;2022-09-02T04:11:30;112.80;;;59.55;;
52738;SDS011;52466;40.122;18.318;2022-09-02T04:14:38;115.03;;;59.53;;
52738;SDS011;52466;40.122;18.318;2022-09-02T04:17:48;113.72;;;59.50;;
52738;SDS011;52466;40.122;18.318;2022-09-02T04:20:58;113.38;;;58.83;;
52738;SDS011;52466;40.122;18.318;2022-09-02T04:24:08;110.95;;;59.72;;
52738;SDS011;52466;40.122;18.318;2022-09-02T04:27:20;111.30;;;59.13;;
52738;SDS011;52466;40.122;18.318;2022-09-02T04:30:29;113.88;;;59.05;;
52738;SDS011;52466;40.122;18.318;2022-09-02T04:33:37;115.22;;;59.70;;
52738;SDS011;52466;40.122;18.318;2022-09-02T04:36:48;112.45;;;59.50;;
52738;SDS011;52466;40.122;18.318;2022-09-02T04:39:56;114.88;;;59.92;;
52738;SDS011;52466;40.122;18.318;2022-09-02T04:43:04;115.20;;;59.50;;
52738;SDS011;52466;40.122;18.318;2022-09-02T04:46:13;111.90;;;59.90;;
52738;SDS011;52466;40.122;18.318;2022-09-02T04:49:21;112.75;;;59.25;;
52738;SDS011;52466;40.122;18.318;2022-09-02T04:52:30;112.43;;;59.60;;
52738;SDS011;52466;40.122;18.318;2022-09-02T04:55:38;114.50;;;59.70;;
52738;SDS011;52466;40.122;18.318;2022-09-02T04:58:49;116.45;;;59.75;;
52738;SDS011;52466;40.122;18.318;2022-09-02T05:01:57;112.70;;;59.33;;
52738;SDS011;52466;40.122;18.318;2022-09-02T05:05:06;111.20;;;58.92;;
52738;SDS011;52466;40.122;18.318;2022-09-02T05:08:15;111.30;;;59.55;;
52738;SDS011;52466;40.122;18.318;2022-09-02T05:11:29;110.50;;;58.90;;
52738;SDS011;52466;40.122;18.318;2022-09-02T05:14:38;115.40;;;59.72;;
52738;SDS011;52466;40.122;18.318;2022-09-02T05:17:46;117.60;;;59.50;;
52738;SDS011;52466;40.122;18.318;2022-09-02T05:20:54;119.15;;;60.58;;
52738;SDS011;52466;40.122;18.318;2022-09-02T05:24:02;121.65;;;61.53;;
52738;SDS011;52466;40.122;18.318;2022-09-02T05:27:12;123.93;;;62.63;;
52738;SDS011;52466;40.122;18.318;2022-09-02T05:30:22;121.78;;;62.88;;
52738;SDS011;52466;40.122;18.318;2022-09-02T05:33:33;120.10;;;62.53;;
52738;SDS011;52466;40.122;18.318;2022-09-02T05:36:52;121.63;;;62.00;;
52738;SDS011;52466;40.122;18.318;2022-09-02T05:40:03;120.00;;;61.70;;
52738;SDS011;52466;40.122;18.318;2022-09-02T05:43:12;121.55;;;61.60;;
52738;SDS011;52466;40.122;18.318;2022-09-02T05:46:22;120.05;;;61.40;;
52738;SDS011;52466;40.122;18.318;2022-09-02T05:49:32;120.13;;;60.50;;
52738;SDS011;52466;40.122;18.318;2022-09-02T05:52:44;118.60;;;60.75;;
52738;SDS011;52466;40.122;18.318;2022-09-02T05:55:53;115.38;;;59.83;;
52738;SDS011;52466;40.122;18.318;2022-09-02T05:59:03;116.63;;;60.03;;
52738;SDS011;52466;40.122;18.318;2022-09-02T06:02:14;114.93;;;59.95;;
52738;SDS011;52466;40.122;18.318;2022-09-02T06:05:23;116.72;;;60.25;;
52738;SDS011;52466;40.122;18.318;2022-09-02T06:08:40;114.97;;;59.50;;
52738;SDS011;52466;40.122;18.318;2022-09-02T06:11:49;114.63;;;59.67;;
52738;SDS011;52466;40.122;18.318;2022-09-02T06:15:03;114.57;;;59.95;;
52738;SDS011;52466;40.122;18.318;2022-09-02T06:18:13;117.10;;;60.17;;
52738;SDS011;52466;40.122;18.318;2022-09-02T06:21:24;121.68;;;60.70;;
52738;SDS011;52466;40.122;18.318;2022-09-02T06:24:32;127.05;;;63.13;;
52738;SDS011;52466;40.122;18.318;2022-09-02T06:27:45;130.98;;;64.35;;
52738;SDS011;52466;40.122;18.318;2022-09-02T06:30:53;131.05;;;64.80;;
52738;SDS011;52466;40.122;18.318;2022-09-02T06:34:01;131.70;;;65.40;;
52738;SDS011;52466;40.122;18.318;2022-09-02T06:37:09;127.07;;;65.65;;
52738;SDS011;52466;40.122;18.318;2022-09-02T06:40:17;127.03;;;65.95;;
52738;SDS011;52466;40.122;18.318;2022-09-02T06:43:26;120.15;;;65.40;;
52738;SDS011;52466;40.122;18.318;2022-09-02T06:46:55;121.50;;;64.65;;
52738;SDS011;52466;40.122;18.318;2022-09-02T06:50:05;117.90;;;64.25;;
52738;SDS011;52466;40.122;18.318;2022-09-02T06:53:15;119.53;;;64.22;;
52738;SDS011;52466;40.122;18.318;2022-09-02T06:56:24;123.10;;;64.97;;
52738;SDS011;52466;40.122;18.318;2022-09-02T06:59:32;123.72;;;64.40;;
52738;SDS011;52466;40.122;18.318;2022-09-02T07:02:41;122.47;;;63.92;;
52738;SDS011;52466;40.122;18.318;2022-09-02T07:09:09;121.25;;;63.50;;
52738;SDS011;52466;40.122;18.318;2022-09-02T07:12:18;123.15;;;63.42;;
52738;SDS011;52466;40.122;18.318;2022-09-02T07:15:31;125.38;;;63.55;;
52738;SDS011;52466;40.122;18.318;2022-09-02T07:18:40;131.15;;;63.95;;
52738;SDS011;52466;40.122;18.318;2022-09-02T07:21:50;126.65;;;63.75;;
52738;SDS011;52466;40.122;18.318;2022-09-02T07:24:58;128.98;;;63.47;;
52738;SDS011;52466;40.122;18.318;2022-09-02T07:28:07;131.80;;;63.83;;
52738;SDS011;52466;40.122;18.318;2022-09-02T07:31:16;127.03;;;63.50;;
52738;SDS011;52466;40.122;18.318;2022-09-02T07:34:24;128.10;;;63.13;;
52738;SDS011;52466;40.122;18.318;2022-09-02T07:37:33;127.43;;;63.58;;
52738;SDS011;52466;40.122;18.318;2022-09-02T07:40:42;127.80;;;63.08;;
52738;SDS011;52466;40.122;18.318;2022-09-02T07:43:54;128.95;;;63.35;;
52738;SDS011;52466;40.122;18.318;2022-09-02T07:47:03;130.75;;;63.47;;
52738;SDS011;52466;40.122;18.318;2022-09-02T07:50:15;127.07;;;63.25;;
52738;SDS011;52466;40.122;18.318;2022-09-02T07:53:27;125.63;;;62.63;;
52738;SDS011;52466;40.122;18.318;2022-09-02T07:56:35;126.90;;;63.38;;
52738;SDS011;52466;40.122;18.318;2022-09-02T07:59:43;126.22;;;63.20;;
52738;SDS011;52466;40.122;18.318;2022-09-02T08:02:53;127.18;;;62.70;;
52738;SDS011;52466;40.122;18.318;2022-09-02T08:06:07;130.02;;;63.00;;
52738;SDS011;52466;40.122;18.318;2022-09-02T08:09:15;127.05;;;63.15;;
52738;SDS011;52466;40.122;18.318;2022-09-02T08:12:23;127.28;;;62.83;;
52738;SDS011;52466;40.122;18.318;2022-09-02T08:15:31;125.28;;;62.47;;
52738;SDS011;52466;40.122;18.318;2022-09-02T08:18:41;128.18;;;62.92;;
52738;SDS011;52466;40.122;18.318;2022-09-02T08:21:49;126.47;;;62.90;;
52738;SDS011;52466;40.122;18.318;2022-09-02T08:24:53;126.43;;;62.88;;
52738;SDS011;52466;40.122;18.318;2022-09-02T08:28:01;125.45;;;62.72;;
52738;SDS011;52466;40.122;18.318;2022-09-02T08:31:09;125.68;;;62.05;;
52738;SDS011;52466;40.122;18.318;2022-09-02T08:34:17;126.53;;;62.47;;
52738;SDS011;52466;40.122;18.318;2022-09-02T08:37:26;127.60;;;62.08;;
52738;SDS011;52466;40.122;18.318;2022-09-02T08:40:35;127.05;;;63.00;;
52738;SDS011;52466;40.122;18.318;2022-09-02T08:43:44;127.78;;;62.50;;
52738;SDS011;52466;40.122;18.318;2022-09-02T08:46:53;128.05;;;61.95;;
52738;SDS011;52466;40.122;18.318;2022-09-02T08:50:11;126.05;;;61.67;;
52738;SDS011;52466;40.122;18.318;2022-09-02T08:53:43;125.13;;;61.70;;
52738;SDS011;52466;40.122;18.318;2022-09-02T08:57:11;129.30;;;61.88;;
52738;SDS011;52466;40.122;18.318;2022-09-02T09:00:19;124.50;;;62.03;;
52738;SDS011;52466;40.122;18.318;2022-09-02T09:03:33;127.75;;;62.22;;
52738;SDS011;52466;40.122;18.318;2022-09-02T09:18:00;126.95;;;61.53;;
52738;SDS011;52466;40.122;18.318;2022-09-02T09:24:17;133.23;;;62.05;;
52738;SDS011;52466;40.122;18.318;2022-09-02T09:27:26;125.30;;;61.40;;
52738;SDS011;52466;40.122;18.318;2022-09-02T09:30:34;123.40;;;61.78;;
52738;SDS011;52466;40.122;18.318;2022-09-02T09:33:58;124.60;;;61.88;;
52738;SDS011;52466;40.122;18.318;2022-09-02T09:37:11;124.18;;;61.78;;
52738;SDS011;52466;40.122;18.318;2022-09-02T09:40:38;124.63;;;61.50;;
52738;SDS011;52466;40.122;18.318;2022-09-02T09:43:46;127.80;;;61.83;;
52738;SDS011;52466;40.122;18.318;2022-09-02T09:47:00;124.47;;;61.63;;
52738;SDS011;52466;40.122;18.318;2022-09-02T09:50:11;125.88;;;61.88;;
52738;SDS011;52466;40.122;18.318;2022-09-02T09:53:26;124.03;;;62.38;;
52738;SDS011;52466;40.122;18.318;2022-09-02T09:56:34;124.68;;;62.10;;
52738;SDS011;52466;40.122;18.318;2022-09-02T09:59:43;127.65;;;62.20;;
52738;SDS011;52466;40.122;18.318;2022-09-02T10:02:55;127.13;;;62.72;;
52738;SDS011;52466;40.122;18.318;2022-09-02T10:06:17;128.35;;;62.50;;
52738;SDS011;52466;40.122;18.318;2022-09-02T10:09:34;127.22;;;62.20;;
52738;SDS011;52466;40.122;18.318;2022-09-02T10:12:42;126.20;;;62.25;;
52738;SDS011;52466;40.122;18.318;2022-09-02T10:16:00;127.18;;;61.95;;
52738;SDS011;52466;40.122;18.318;2022-09-02T10:23:04;128.73;;;61.30;;
52738;SDS011;52466;40.122;18.318;2022-09-02T10:26:24;125.65;;;61.17;;
52738;SDS011;52466;40.122;18.318;2022-09-02T10:30:05;125.28;;;60.97;;
52738;SDS011;52466;40.122;18.318;2022-09-02T10:33:39;124.85;;;61.13;;
52738;SDS011;52466;40.122;18.318;2022-09-02T10:37:07;123.93;;;60.78;;
52738;SDS011;52466;40.122;18.318;2022-09-02T10:41:16;126.70;;;60.67;;
52738;SDS011;52466;40.122;18.318;2022-09-02T10:47:38;124.82;;;60.65;;
52738;SDS011;52466;40.122;18.318;2022-09-02T10:54:29;126.45;;;60.92;;
52738;SDS011;52466;40.122;18.318;2022-09-02T11:01:17;126.03;;;61.03;;
52738;SDS011;52466;40.122;18.318;2022-09-02T11:04:34;126.72;;;61.53;;
52738;SDS011;52466;40.122;18.318;2022-09-02T11:07:56;122.50;;;60.58;;
52738;SDS011;52466;40.122;18.318;2022-09-02T11:15:04;125.97;;;61.42;;
52738;SDS011;52466;40.122;18.318;2022-09-02T11:18:31;122.82;;;60.72;;
52738;SDS011;52466;40.122;18.318;2022-09-02T11:25:56;125.43;;;61.20;;
52738;SDS011;52466;40.122;18.318;2022-09-02T11:35:57;126.43;;;61.92;;
52738;SDS011;52466;40.122;18.318;2022-09-02T11:39:14;126.43;;;61.70;;
52738;SDS011;52466;40.122;18.318;2022-09-02T11:56:20;125.93;;;61.85;;
52738;SDS011;52466;40.122;18.318;2022-09-02T12:03:01;127.15;;;61.85;;
52738;SDS011;52466;40.122;18.318;2022-09-02T12:06:18;125.03;;;61.58;;
52738;SDS011;52466;40.122;18.318;2022-09-02T12:19:24;125.97;;;62.15;;
52738;SDS011;52466;40.122;18.318;2022-09-02T12:22:34;125.90;;;61.67;;
52738;SDS011;52466;40.122;18.318;2022-09-02T12:25:51;123.53;;;61.23;;
52738;SDS011;52466;40.122;18.318;2022-09-02T12:29:12;126.00;;;61.42;;
52738;SDS011;52466;40.122;18.318;2022-09-02T12:35:52;128.45;;;61.42;;
52738;SDS011;52466;40.122;18.318;2022-09-02T12:42:30;125.30;;;61.90;;
52738;SDS011;52466;40.122;18.318;2022-09-02T12:45:40;124.28;;;61.75;;
52738;SDS011;52466;40.122;18.318;2022-09-02T12:48:57;126.10;;;61.60;;
52738;SDS011;52466;40.122;18.318;2022-09-02T12:55:42;126.47;;;61.85;;
52738;SDS011;52466;40.122;18.318;2022-09-02T12:59:07;124.72;;;61.63;;
52738;SDS011;52466;40.122;18.318;2022-09-02T13:12:24;127.53;;;62.35;;
52738;SDS011;52466;40.122;18.318;2022-09-02T13:32:55;129.30;;;62.55;;
52738;SDS011;52466;40.122;18.318;2022-09-02T13:36:18;124.40;;;61.55;;
52738;SDS011;52466;40.122;18.318;2022-09-02T13:39:33;126.68;;;62.00;;
52738;SDS011;52466;40.122;18.318;2022-09-02T13:42:48;126.18;;;61.92;;
52738;SDS011;52466;40.122;18.318;2022-09-02T13:46:00;126.40;;;61.73;;
52738;SDS011;52466;40.122;18.318;2022-09-02T13:49:16;126.18;;;61.58;;
52738;SDS011;52466;40.122;18.318;2022-09-02T13:52:31;125.37;;;61.17;;
52738;SDS011;52466;40.122;18.318;2022-09-02T13:55:47;123.85;;;61.40;;
52738;SDS011;52466;40.122;18.318;2022-09-02T13:58:57;123.15;;;60.88;;
52738;SDS011;52466;40.122;18.318;2022-09-02T14:02:19;125.32;;;61.50;;
52738;SDS011;52466;40.122;18.318;2022-09-02T14:05:31;122.78;;;60.83;;
52738;SDS011;52466;40.122;18.318;2022-09-02T14:08:41;125.35;;;60.90;;
52738;SDS011;52466;40.122;18.318;2022-09-02T14:11:50;123.90;;;60.85;;
52738;SDS011;52466;40.122;18.318;2022-09-02T14:14:59;123.30;;;61.25;;
52738;SDS011;52466;40.122;18.318;2022-09-02T14:18:15;123.70;;;60.83;;
52738;SDS011;52466;40.122;18.318;2022-09-02T14:21:27;126.35;;;61.28;;
52738;SDS011;52466;40.122;18.318;2022-09-02T14:24:38;123.43;;;60.88;;
52738;SDS011;52466;40.122;18.318;2022-09-02T14:27:47;128.57;;;60.80;;
52738;SDS011;52466;40.122;18.318;2022-09-02T14:31:07;124.85;;;60.85;;
52738;SDS011;52466;40.122;18.318;2022-09-02T14:34:36;123.65;;;61.15;;
52738;SDS011;52466;40.122;18.318;2022-09-02T14:37:55;122.95;;;61.05;;
52738;SDS011;52466;40.122;18.318;2022-09-02T14:41:24;122.80;;;60.60;;
52738;SDS011;52466;40.122;18.318;2022-09-02T14:44:40;126.35;;;60.50;;
52738;SDS011;52466;40.122;18.318;2022-09-02T14:47:57;124.60;;;61.00;;
52738;SDS011;52466;40.122;18.318;2022-09-02T14:51:27;125.50;;;60.22;;
52738;SDS011;52466;40.122;18.318;2022-09-02T14:54:50;126.45;;;60.17;;
52738;SDS011;52466;40.122;18.318;2022-09-02T14:58:02;124.20;;;60.20;;
52738;SDS011;52466;40.122;18.318;2022-09-02T15:01:10;124.90;;;60.20;;
52738;SDS011;52466;40.122;18.318;2022-09-02T15:04:19;126.70;;;60.17;;
52738;SDS011;52466;40.122;18.318;2022-09-02T15:07:27;125.90;;;60.35;;
52738;SDS011;52466;40.122;18.318;2022-09-02T15:10:35;125.70;;;60.38;;
52738;SDS011;52466;40.122;18.318;2022-09-02T15:13:46;124.80;;;60.17;;
52738;SDS011;52466;40.122;18.318;2022-09-02T15:16:53;126.20;;;60.30;;
52738;SDS011;52466;40.122;18.318;2022-09-02T15:20:01;124.43;;;60.28;;
52738;SDS011;52466;40.122;18.318;2022-09-02T15:23:09;124.00;;;60.40;;
52738;SDS011;52466;40.122;18.318;2022-09-02T15:26:17;122.78;;;60.45;;
52738;SDS011;52466;40.122;18.318;2022-09-02T15:29:25;123.68;;;60.10;;
52738;SDS011;52466;40.122;18.318;2022-09-02T15:32:32;122.70;;;59.95;;
52738;SDS011;52466;40.122;18.318;2022-09-02T15:35:41;126.63;;;59.85;;
52738;SDS011;52466;40.122;18.318;2022-09-02T15:38:49;124.60;;;60.03;;
52738;SDS011;52466;40.122;18.318;2022-09-02T15:41:56;125.68;;;59.83;;
52738;SDS011;52466;40.122;18.318;2022-09-02T15:45:05;123.00;;;59.83;;
52738;SDS011;52466;40.122;18.318;2022-09-02T15:48:16;125.90;;;60.13;;
52738;SDS011;52466;40.122;18.318;2022-09-02T15:51:24;122.45;;;59.95;;
52738;SDS011;52466;40.122;18.318;2022-09-02T15:54:32;123.22;;;59.97;;
52738;SDS011;52466;40.122;18.318;2022-09-02T15:57:39;123.22;;;59.67;;
52738;SDS011;52466;40.122;18.318;2022-09-02T16:00:47;114.98;;;55.20;;
52738;SDS011;52466;40.122;18.318;2022-09-02T16:03:55;121.72;;;60.00;;
52738;SDS011;52466;40.122;18.318;2022-09-02T16:07:03;123.75;;;59.97;;
52738;SDS011;52466;40.122;18.318;2022-09-02T16:10:12;123.72;;;60.97;;
52738;SDS011;52466;40.122;18.318;2022-09-02T16:13:21;131.75;;;61.42;;
52738;SDS011;52466;40.122;18.318;2022-09-02T16:16:28;122.82;;;60.38;;
52738;SDS011;52466;40.122;18.318;2022-09-02T16:19:38;123.10;;;59.90;;
52738;SDS011;52466;40.122;18.318;2022-09-02T16:22:45;123.72;;;59.90;;
52738;SDS011;52466;40.122;18.318;2022-09-02T16:26:07;126.18;;;60.05;;
52738;SDS011;52466;40.122;18.318;2022-09-02T16:29:22;122.45;;;59.50;;
52738;SDS011;52466;40.122;18.318;2022-09-02T16:32:33;125.65;;;59.65;;
52738;SDS011;52466;40.122;18.318;2022-09-02T16:35:40;122.95;;;59.50;;
52738;SDS011;52466;40.122;18.318;2022-09-02T16:38:48;123.90;;;59.65;;
52738;SDS011;52466;40.122;18.318;2022-09-02T16:41:58;126.65;;;60.08;;
52738;SDS011;52466;40.122;18.318;2022-09-02T16:45:10;122.43;;;59.53;;
52738;SDS011;52466;40.122;18.318;2022-09-02T16:48:18;123.00;;;59.30;;
52738;SDS011;52466;40.122;18.318;2022-09-02T16:51:27;123.32;;;59.45;;
52738;SDS011;52466;40.122;18.318;2022-09-02T16:54:36;121.53;;;59.60;;
52738;SDS011;52466;40.122;18.318;2022-09-02T16:57:44;120.38;;;59.22;;
52738;SDS011;52466;40.122;18.318;2022-09-02T17:00:51;121.22;;;59.53;;
52738;SDS011;52466;40.122;18.318;2022-09-02T17:03:59;120.53;;;59.22;;
52738;SDS011;52466;40.122;18.318;2022-09-02T17:07:07;123.13;;;59.15;;
52738;SDS011;52466;40.122;18.318;2022-09-02T17:10:15;121.20;;;59.20;;
52738;SDS011;52466;40.122;18.318;2022-09-02T17:13:23;121.10;;;59.17;;
52738;SDS011;52466;40.122;18.318;2022-09-02T17:16:32;124.20;;;59.45;;
52738;SDS011;52466;40.122;18.318;2022-09-02T17:19:41;120.10;;;58.75;;
52738;SDS011;52466;40.122;18.318;2022-09-02T17:22:49;125.18;;;59.10;;
52738;SDS011;52466;40.122;18.318;2022-09-02T17:25:57;121.47;;;58.97;;
52738;SDS011;52466;40.122;18.318;2022-09-02T17:29:08;123.88;;;59.05;;
52738;SDS011;52466;40.122;18.318;2022-09-02T17:32:24;119.72;;;58.83;;
52738;SDS011;52466;40.122;18.318;2022-09-02T17:35:32;121.10;;;59.00;;
52738;SDS011;52466;40.122;18.318;2022-09-02T17:38:40;128.23;;;59.75;;
52738;SDS011;52466;40.122;18.318;2022-09-02T17:41:48;121.68;;;59.08;;
52738;SDS011;52466;40.122;18.318;2022-09-02T17:45:03;120.93;;;58.78;;
52738;SDS011;52466;40.122;18.318;2022-09-02T17:48:11;121.10;;;59.05;;
52738;SDS011;52466;40.122;18.318;2022-09-02T17:51:19;95.47;;;47.50;;
52738;SDS011;52466;40.122;18.318;2022-09-02T17:54:27;122.75;;;58.92;;
52738;SDS011;52466;40.122;18.318;2022-09-02T17:57:49;119.25;;;58.70;;
52738;SDS011;52466;40.122;18.318;2022-09-02T18:01:10;120.30;;;58.38;;
52738;SDS011;52466;40.122;18.318;2022-09-02T18:11:49;124.53;;;59.38;;
52738;SDS011;52466;40.122;18.318;2022-09-02T18:14:57;123.07;;;60.40;;
52738;SDS011;52466;40.122;18.318;2022-09-02T18:18:07;123.10;;;60.13;;
52738;SDS011;52466;40.122;18.318;2022-09-02T18:21:18;122.07;;;59.20;;
52738;SDS011;52466;40.122;18.318;2022-09-02T18:38:48;119.35;;;57.95;;
52738;SDS011;52466;40.122;18.318;2022-09-02T18:48:38;118.45;;;58.15;;
52738;SDS011;52466;40.122;18.318;2022-09-02T18:51:45;118.68;;;58.05;;
52738;SDS011;52466;40.122;18.318;2022-09-02T18:58:10;123.70;;;58.40;;
52738;SDS011;52466;40.122;18.318;2022-09-02T19:01:25;121.45;;;58.10;;
52738;SDS011;52466;40.122;18.318;2022-09-02T19:04:35;116.97;;;57.88;;
52738;SDS011;52466;40.122;18.318;2022-09-02T19:07:43;121.00;;;58.45;;
52738;SDS011;52466;40.122;18.318;2022-09-02T19:11:11;118.70;;;58.13;;
52738;SDS011;52466;40.122;18.318;2022-09-02T19:14:29;121.13;;;58.25;;
52738;SDS011;52466;40.122;18.318;2022-09-02T19:17:37;120.53;;;58.85;;
52738;SDS011;52466;40.122;18.318;2022-09-02T19:20:46;122.22;;;58.38;;
52738;SDS011;52466;40.122;18.318;2022-09-02T19:23:54;118.28;;;58.55;;
52738;SDS011;52466;40.122;18.318;2022-09-02T19:27:03;120.20;;;58.35;;
52738;SDS011;52466;40.122;18.318;2022-09-02T19:30:18;127.05;;;58.33;;
52738;SDS011;52466;40.122;18.318;2022-09-02T19:33:29;119.70;;;58.33;;
52738;SDS011;52466;40.122;18.318;2022-09-02T19:36:39;125.32;;;58.28;;
52738;SDS011;52466;40.122;18.318;2022-09-02T19:39:49;119.32;;;58.15;;
52738;SDS011;52466;40.122;18.318;2022-09-02T19:42:59;120.03;;;57.85;;
52738;SDS011;52466;40.122;18.318;2022-09-02T19:46:09;119.70;;;58.20;;
52738;SDS011;52466;40.122;18.318;2022-09-02T19:49:17;121.50;;;58.25;;
52738;SDS011;52466;40.122;18.318;2022-09-02T19:52:25;122.72;;;58.10;;
52738;SDS011;52466;40.122;18.318;2022-09-02T19:55:33;121.43;;;58.30;;
52738;SDS011;52466;40.122;18.318;2022-09-02T19:58:41;117.38;;;58.13;;
52738;SDS011;52466;40.122;18.318;2022-09-02T20:01:49;119.68;;;58.05;;
52738;SDS011;52466;40.122;18.318;2022-09-02T20:04:57;121.75;;;58.35;;
52738;SDS011;52466;40.122;18.318;2022-09-02T20:08:05;118.40;;;58.20;;
52738;SDS011;52466;40.122;18.318;2022-09-02T20:11:17;121.10;;;58.88;;
52738;SDS011;52466;40.122;18.318;2022-09-02T20:14:24;119.80;;;58.65;;
52738;SDS011;52466;40.122;18.318;2022-09-02T20:17:32;120.03;;;58.03;;
52738;SDS011;52466;40.122;18.318;2022-09-02T20:20:41;119.97;;;58.63;;
52738;SDS011;52466;40.122;18.318;2022-09-02T20:23:50;118.68;;;58.17;;
52738;SDS011;52466;40.122;18.318;2022-09-02T20:30:39;118.15;;;58.20;;
52738;SDS011;52466;40.122;18.318;2022-09-02T20:54:20;120.85;;;58.50;;
52738;SDS011;52466;40.122;18.318;2022-09-02T21:01:23;123.22;;;58.65;;